createdAt,value
2019-05-02T00:00:14.419Z,0
2019-05-02T00:01:14.468Z,0
2019-05-02T00:02:14.477Z,0
2019-05-02T00:03:14.472Z,0
2019-05-02T00:04:29.154Z,0
2019-05-02T00:05:14.259Z,0
2019-05-02T00:06:16.420Z,0
2019-05-02T00:07:24.349Z,0
2019-05-02T00:08:14.569Z,0
2019-05-02T00:09:16.143Z,0
2019-05-02T00:10:14.602Z,0
2019-05-02T00:11:14.624Z,0
2019-05-02T00:12:29.308Z,0
2019-05-02T00:13:14.658Z,0
2019-05-02T00:14:14.678Z,0
2019-05-02T00:15:14.694Z,0
2019-05-02T00:16:20.044Z,0
2019-05-02T00:17:14.740Z,0
2019-05-02T00:18:14.762Z,0
2019-05-02T00:19:30.998Z,0
2019-05-02T00:20:30.914Z,0
2019-05-02T00:21:14.810Z,0
2019-05-02T00:22:22.075Z,0
2019-05-02T00:23:29.512Z,0
2019-05-02T00:24:14.959Z,0
2019-05-02T00:26:14.896Z,0
2019-05-02T00:27:14.917Z,0
2019-05-02T00:28:19.416Z,0
2019-05-02T00:29:29.615Z,0
2019-05-02T00:30:14.974Z,0
2019-05-02T00:31:19.824Z,0
2019-05-02T00:32:18.210Z,0
2019-05-02T00:33:17.621Z,0
2019-05-02T00:34:15.043Z,0
2019-05-02T00:35:29.731Z,0
2019-05-02T00:36:15.083Z,0
2019-05-02T00:37:18.744Z,0
2019-05-02T00:38:33.252Z,0
2019-05-02T00:39:18.852Z,0
2019-05-02T00:40:15.207Z,0
2019-05-02T00:41:15.331Z,0
2019-05-02T00:42:25.226Z,0
2019-05-02T00:43:15.217Z,0
2019-05-02T00:44:18.331Z,0
2019-05-02T00:45:18.591Z,0
2019-05-02T00:46:30.182Z,0
2019-05-02T00:47:18.236Z,0
2019-05-02T00:48:19.189Z,0
2019-05-02T00:49:15.325Z,0
2019-05-02T00:50:18.565Z,0
2019-05-02T00:51:15.355Z,0
2019-05-02T00:52:15.375Z,0
2019-05-02T00:53:19.456Z,0
2019-05-02T00:54:19.043Z,0
2019-05-02T00:55:15.432Z,0
2019-05-02T00:56:16.302Z,0
2019-05-02T00:57:22.286Z,0
2019-05-02T00:58:15.482Z,0
2019-05-02T00:59:15.751Z,0
2019-05-02T01:00:20.858Z,0
2019-05-02T01:01:15.295Z,0
2019-05-02T01:02:15.574Z,0
2019-05-02T01:03:22.600Z,0
2019-05-02T01:04:31.461Z,0
2019-05-02T01:06:21.128Z,0
2019-05-02T01:07:31.453Z,0
2019-05-02T01:08:15.665Z,0
2019-05-02T01:09:18.389Z,0
2019-05-02T01:10:23.150Z,0
2019-05-02T01:12:30.548Z,0
2019-05-02T01:13:21.681Z,0
2019-05-02T01:14:15.772Z,0
2019-05-02T01:15:16.901Z,0
2019-05-02T01:16:21.710Z,0
2019-05-02T01:17:15.831Z,0
2019-05-02T01:18:15.598Z,0
2019-05-02T01:19:22.791Z,0
2019-05-02T01:20:31.743Z,0
2019-05-02T01:22:20.818Z,0
2019-05-02T01:23:32.556Z,0
2019-05-02T01:24:15.963Z,0
2019-05-02T01:25:37.269Z,0
2019-05-02T01:26:15.996Z,0
2019-05-02T01:27:16.013Z,0
2019-05-02T01:28:34.718Z,0
2019-05-02T01:29:16.048Z,0
2019-05-02T01:30:16.075Z,0
2019-05-02T01:31:23.436Z,0
2019-05-02T01:32:16.103Z,0
2019-05-02T01:33:16.117Z,0
2019-05-02T01:34:23.946Z,0
2019-05-02T01:35:16.160Z,0
2019-05-02T01:36:16.167Z,0
2019-05-02T01:37:25.887Z,0
2019-05-02T01:38:16.205Z,0
2019-05-02T01:39:30.888Z,0
2019-05-02T01:40:22.724Z,0
2019-05-02T01:41:16.273Z,0
2019-05-02T01:42:16.279Z,0
2019-05-02T01:43:19.763Z,0
2019-05-02T01:44:16.327Z,0
2019-05-02T01:45:18.610Z,0
2019-05-02T01:46:22.152Z,0
2019-05-02T01:47:16.365Z,0
2019-05-02T01:48:31.805Z,0
2019-05-02T01:49:21.709Z,0
2019-05-02T01:50:16.433Z,0
2019-05-02T01:51:19.071Z,0
2019-05-02T01:52:18.834Z,0
2019-05-02T01:53:16.485Z,0
2019-05-02T01:54:17.333Z,0
2019-05-02T01:55:31.174Z,0
2019-05-02T01:56:16.533Z,0
2019-05-02T01:57:31.893Z,0
2019-05-02T01:58:23.592Z,0
2019-05-02T01:59:16.588Z,0
2019-05-02T02:00:18.636Z,0
2019-05-02T02:01:24.149Z,0
2019-05-02T02:02:16.640Z,0
2019-05-02T02:03:17.588Z,0
2019-05-02T02:04:23.477Z,0
2019-05-02T02:05:16.695Z,0
2019-05-02T02:06:31.966Z,0
2019-05-02T02:07:22.723Z,0
2019-05-02T02:08:16.747Z,0
2019-05-02T02:09:17.139Z,0
2019-05-02T02:10:31.477Z,0
2019-05-02T02:11:16.810Z,0
2019-05-02T02:12:18.526Z,0
2019-05-02T02:13:16.843Z,0
2019-05-02T02:14:23.479Z,0
2019-05-02T02:15:16.875Z,0
2019-05-02T02:16:16.892Z,0
2019-05-02T02:17:22.422Z,0
2019-05-02T02:18:16.944Z,0
2019-05-02T02:19:34.563Z,0
2019-05-02T02:20:21.445Z,0
2019-05-02T02:21:31.646Z,0
2019-05-02T02:22:17.011Z,0
2019-05-02T02:23:21.137Z,0
2019-05-02T02:24:21.040Z,0
2019-05-02T02:25:17.062Z,0
2019-05-02T02:26:19.698Z,0
2019-05-02T02:28:17.127Z,0
2019-05-02T02:29:17.130Z,0
2019-05-02T02:30:29.167Z,0
2019-05-02T02:31:17.183Z,0
2019-05-02T02:33:17.041Z,0
2019-05-02T02:34:28.852Z,0
2019-05-02T02:35:19.520Z,0
2019-05-02T02:36:29.494Z,0
2019-05-02T02:37:21.843Z,0
2019-05-02T02:38:17.299Z,0
2019-05-02T02:39:21.849Z,0
2019-05-02T02:40:17.087Z,0
2019-05-02T02:42:36.638Z,0
2019-05-02T02:43:39.809Z,0
2019-05-02T02:44:17.399Z,0
2019-05-02T02:45:39.910Z,0
2019-05-02T02:46:37.679Z,0
2019-05-02T02:47:40.062Z,0
2019-05-02T02:49:27.233Z,0
2019-05-02T02:50:17.515Z,0
2019-05-02T02:51:31.196Z,0
2019-05-02T02:52:17.544Z,0
2019-05-02T02:53:32.257Z,0
2019-05-02T02:54:17.602Z,0
2019-05-02T02:55:24.701Z,0
2019-05-02T02:57:33.135Z,0
2019-05-02T02:58:43.936Z,0
2019-05-02T02:59:30.776Z,0
2019-05-02T03:00:18.591Z,0
2019-05-02T03:01:31.266Z,0
2019-05-02T03:02:19.398Z,0
2019-05-02T03:03:27.721Z,0
2019-05-02T03:04:19.468Z,0
2019-05-02T03:05:30.286Z,0
2019-05-02T03:06:17.820Z,0
2019-05-02T03:07:31.376Z,0
2019-05-02T03:08:32.524Z,4
2019-05-02T03:09:26.450Z,4
2019-05-02T03:10:17.877Z,4
2019-05-02T03:12:17.922Z,4
2019-05-02T03:13:26.766Z,8
2019-05-02T03:14:32.401Z,8
2019-05-02T03:15:29.755Z,8
2019-05-02T03:16:18.051Z,8
2019-05-02T03:17:28.653Z,16
2019-05-02T03:18:18.025Z,12
2019-05-02T03:20:18.048Z,16
2019-05-02T03:21:27.434Z,16
2019-05-02T03:22:18.104Z,16
2019-05-02T03:23:28.447Z,20
2019-05-02T03:24:18.122Z,24
2019-05-02T03:25:51.771Z,28
2019-05-02T03:26:22.506Z,32
2019-05-02T03:27:18.182Z,28
2019-05-02T03:29:18.207Z,32
2019-05-02T03:30:41.101Z,40
2019-05-02T03:31:35.533Z,48
2019-05-02T03:32:38.876Z,44
2019-05-02T03:33:51.153Z,48
2019-05-02T03:34:18.331Z,52
2019-05-02T03:35:51.312Z,60
2019-05-02T03:36:40.832Z,64
2019-05-02T03:37:21.193Z,64
2019-05-02T03:39:24.228Z,72
2019-05-02T03:40:18.415Z,76
2019-05-02T03:41:26.305Z,88
2019-05-02T03:42:47.596Z,88
2019-05-02T03:43:30.410Z,92
2019-05-02T03:44:31.027Z,104
2019-05-02T03:45:45.585Z,112
2019-05-02T03:46:27.643Z,112
2019-05-02T03:47:36.631Z,116
2019-05-02T03:48:30.312Z,124
2019-05-02T03:49:18.572Z,128
2019-05-02T03:50:30.642Z,152
2019-05-02T03:51:41.943Z,164
2019-05-02T03:52:18.409Z,172
2019-05-02T03:53:30.315Z,164
2019-05-02T03:54:22.505Z,184
2019-05-02T03:55:23.657Z,200
2019-05-02T03:56:21.371Z,216
2019-05-02T03:57:25.112Z,220
2019-05-02T03:58:23.364Z,228
2019-05-02T03:59:18.754Z,236
2019-05-02T04:00:29.224Z,252
2019-05-02T04:01:18.784Z,268
2019-05-02T04:02:26.740Z,296
2019-05-02T04:03:18.818Z,336
2019-05-02T04:04:27.602Z,352
2019-05-02T04:05:18.606Z,360
2019-05-02T04:06:28.573Z,360
2019-05-02T04:07:18.901Z,376
2019-05-02T04:08:27.560Z,384
2019-05-02T04:09:18.934Z,388
2019-05-02T04:10:26.235Z,416
2019-05-02T04:11:18.972Z,400
2019-05-02T04:12:41.136Z,420
2019-05-02T04:13:19.002Z,420
2019-05-02T04:14:42.774Z,436
2019-05-02T04:15:18.807Z,440
2019-05-02T04:16:24.300Z,484
2019-05-02T04:17:41.656Z,512
2019-05-02T04:18:22.830Z,520
2019-05-02T04:19:19.117Z,536
2019-05-02T04:20:19.936Z,584
2019-05-02T04:21:27.184Z,576
2019-05-02T04:22:19.686Z,572
2019-05-02T04:23:27.476Z,608
2019-05-02T04:24:23.042Z,624
2019-05-02T04:25:19.232Z,628
2019-05-02T04:26:20.345Z,648
2019-05-02T04:27:19.262Z,656
2019-05-02T04:28:21.516Z,716
2019-05-02T04:29:24.384Z,696
2019-05-02T04:30:21.633Z,732
2019-05-02T04:31:24.578Z,736
2019-05-02T04:32:21.753Z,768
2019-05-02T04:33:40.951Z,816
2019-05-02T04:34:23.064Z,948
2019-05-02T04:35:19.405Z,1008
2019-05-02T04:36:22.650Z,912
2019-05-02T04:37:19.439Z,912
2019-05-02T04:38:59.521Z,860
2019-05-02T04:39:30.971Z,840
2019-05-02T04:40:22.963Z,872
2019-05-02T04:41:48.664Z,828
2019-05-02T04:42:29.330Z,828
2019-05-02T04:43:20.849Z,876
2019-05-02T04:46:00.098Z,864
2019-05-02T04:46:38.656Z,884
2019-05-02T04:47:31.550Z,892
2019-05-02T04:48:52.639Z,948
2019-05-02T04:49:41.794Z,992
2019-05-02T04:50:34.324Z,1024
2019-05-02T04:51:40.697Z,1084
2019-05-02T04:52:31.178Z,1092
2019-05-02T04:53:45.589Z,1108
2019-05-02T04:54:51.296Z,1196
2019-05-02T04:55:40.598Z,1216
2019-05-02T04:57:50.892Z,1280
2019-05-02T04:58:52.222Z,1204
2019-05-02T04:59:44.714Z,1232
2019-05-02T05:00:28.345Z,1276
2019-05-02T05:01:48.313Z,1364
2019-05-02T05:02:42.610Z,1432
2019-05-02T05:03:30.871Z,1480
2019-05-02T05:04:27.416Z,1516
2019-05-02T05:05:37.678Z,1516
2019-05-02T05:07:44.429Z,1640
2019-05-02T05:08:38.767Z,1660
2019-05-02T05:09:27.720Z,1652
2019-05-02T05:10:27.648Z,1632
2019-05-02T05:11:32.210Z,1784
2019-05-02T05:12:27.760Z,1772
2019-05-02T05:13:31.518Z,1696
2019-05-02T05:14:25.355Z,1764
2019-05-02T05:16:25.964Z,1704
2019-05-02T05:17:44.575Z,2028
2019-05-02T05:18:43.861Z,1896
2019-05-02T05:20:27.906Z,1908
2019-05-02T05:21:31.037Z,1876
2019-05-02T05:22:25.808Z,1828
2019-05-02T05:23:40.656Z,1948
2019-05-02T05:24:27.941Z,1988
2019-05-02T05:25:30.235Z,1912
2019-05-02T05:26:27.438Z,2020
2019-05-02T05:27:32.210Z,2024
2019-05-02T05:28:47.617Z,1944
2019-05-02T05:29:32.028Z,1872
2019-05-02T05:31:34.046Z,1944
2019-05-02T05:32:40.096Z,1872
2019-05-02T05:33:40.364Z,1864
2019-05-02T05:34:35.571Z,1808
2019-05-02T05:35:27.719Z,1792
2019-05-02T05:36:37.459Z,1828
2019-05-02T05:37:27.279Z,1752
2019-05-02T05:38:40.269Z,1832
2019-05-02T05:41:48.245Z,1688
2019-05-02T05:42:40.254Z,1772
2019-05-02T05:43:29.980Z,1752
2019-05-02T05:44:37.455Z,1844
2019-05-02T05:45:27.846Z,1848
2019-05-02T05:46:27.950Z,1788
2019-05-02T05:47:29.831Z,1720
2019-05-02T05:48:27.361Z,1788
2019-05-02T05:49:30.750Z,1852
2019-05-02T05:50:27.553Z,1840
2019-05-02T05:51:29.951Z,1968
2019-05-02T05:52:44.768Z,2000
2019-05-02T05:53:30.585Z,2020
2019-05-02T05:54:27.755Z,2016
2019-05-02T05:55:43.046Z,2304
2019-05-02T05:56:27.875Z,2384
2019-05-02T05:57:30.320Z,2516
2019-05-02T05:58:28.170Z,2632
2019-05-02T05:59:44.191Z,2752
2019-05-02T06:00:32.544Z,2872
2019-05-02T06:02:28.283Z,2640
2019-05-02T06:03:47.359Z,2640
2019-05-02T06:04:38.682Z,2668
2019-05-02T06:05:27.597Z,2604
2019-05-02T06:06:32.333Z,2432
2019-05-02T06:07:47.397Z,2684
2019-05-02T06:08:41.822Z,2812
2019-05-02T06:09:33.708Z,2672
2019-05-02T06:10:26.369Z,2676
2019-05-02T06:11:41.051Z,2788
2019-05-02T06:12:35.531Z,2788
2019-05-02T06:13:42.847Z,2904
2019-05-02T06:14:29.774Z,2744
2019-05-02T06:15:26.461Z,2608
2019-05-02T06:16:26.490Z,2724
2019-05-02T06:17:35.321Z,2888
2019-05-02T06:18:28.334Z,2792
2019-05-02T06:19:26.538Z,2940
2019-05-02T06:20:33.096Z,2996
2019-05-02T06:21:26.571Z,2792
2019-05-02T06:22:31.661Z,2796
2019-05-02T06:24:41.292Z,2636
2019-05-02T06:25:45.040Z,2808
2019-05-02T06:26:44.604Z,2716
2019-05-02T06:27:32.692Z,2588
2019-05-02T06:28:26.706Z,2692
2019-05-02T06:29:28.098Z,2628
2019-05-02T06:30:30.981Z,2772
2019-05-02T06:31:26.757Z,2720
2019-05-02T06:32:27.866Z,2684
2019-05-02T06:33:33.194Z,2748
2019-05-02T06:34:26.828Z,2684
2019-05-02T06:35:28.455Z,2872
2019-05-02T06:36:41.514Z,3096
2019-05-02T06:38:28.766Z,3292
2019-05-02T06:39:31.860Z,3400
2019-05-02T06:40:26.926Z,3564
2019-05-02T06:41:28.211Z,3680
2019-05-02T06:43:27.037Z,3604
2019-05-02T06:44:31.315Z,3664
2019-05-02T06:45:27.019Z,3660
2019-05-02T06:46:34.527Z,3456
2019-05-02T06:47:27.055Z,3420
2019-05-02T06:48:26.830Z,3504
2019-05-02T06:49:31.574Z,3472
2019-05-02T06:50:33.233Z,3520
2019-05-02T06:51:28.319Z,3640
2019-05-02T06:52:34.672Z,4000
2019-05-02T06:53:27.171Z,3956
2019-05-02T06:54:30.439Z,3960
2019-05-02T06:55:41.871Z,3964
2019-05-02T06:56:27.235Z,4056
2019-05-02T06:57:31.392Z,4220
2019-05-02T06:59:27.252Z,4076
2019-05-02T07:01:44.693Z,3672
2019-05-02T07:02:43.264Z,3676
2019-05-02T07:03:48.918Z,3888
2019-05-02T07:04:29.909Z,3872
2019-05-02T07:05:32.079Z,4052
2019-05-02T07:06:29.657Z,4028
2019-05-02T07:07:41.743Z,3788
2019-05-02T07:08:43.463Z,3680
2019-05-02T07:09:43.045Z,3640
2019-05-02T07:10:48.149Z,3704
2019-05-02T07:11:33.022Z,3648
2019-05-02T07:12:28.795Z,3648
2019-05-02T07:13:28.808Z,3552
2019-05-02T07:14:30.771Z,3444
2019-05-02T07:15:33.448Z,3408
2019-05-02T07:16:44.749Z,3152
2019-05-02T07:18:50.299Z,3052
2019-05-02T07:19:34.280Z,3136
2019-05-02T07:20:28.946Z,3224
2019-05-02T07:21:30.885Z,3288
2019-05-02T07:22:33.008Z,3164
2019-05-02T07:23:29.005Z,3172
2019-05-02T07:24:35.675Z,3120
2019-05-02T07:25:46.508Z,3200
2019-05-02T07:26:30.488Z,3184
2019-05-02T07:27:38.924Z,3184
2019-05-02T07:28:31.190Z,3052
2019-05-02T07:29:30.271Z,2948
2019-05-02T07:30:34.954Z,2900
2019-05-02T07:31:29.160Z,2872
2019-05-02T07:32:32.175Z,2808
2019-05-02T07:33:32.173Z,2708
2019-05-02T07:34:48.101Z,3080
2019-05-02T07:35:31.890Z,3188
2019-05-02T07:36:36.350Z,3300
2019-05-02T07:37:29.271Z,3388
2019-05-02T07:38:32.997Z,3280
2019-05-02T07:39:29.051Z,3432
2019-05-02T07:40:29.323Z,3236
2019-05-02T07:42:29.414Z,3220
2019-05-02T07:43:29.596Z,3392
2019-05-02T07:44:35.335Z,3276
2019-05-02T07:45:29.445Z,3172
2019-05-02T07:46:29.464Z,3340
2019-05-02T07:47:34.504Z,3140
2019-05-02T07:48:29.479Z,3020
2019-05-02T07:49:53.770Z,3248
2019-05-02T07:50:49.011Z,3288
2019-05-02T07:51:29.908Z,3304
2019-05-02T07:52:36.140Z,3464
2019-05-02T07:53:29.573Z,3180
2019-05-02T07:54:46.875Z,2912
2019-05-02T07:55:30.665Z,3080
2019-05-02T07:56:29.640Z,3392
2019-05-02T07:58:29.791Z,3260
2019-05-02T07:59:45.279Z,3248
2019-05-02T08:00:44.123Z,2936
2019-05-02T08:01:49.645Z,3044
2019-05-02T08:02:32.504Z,3116
2019-05-02T08:03:37.958Z,3272
2019-05-02T08:04:29.786Z,3508
2019-05-02T08:05:31.059Z,3412
2019-05-02T08:06:48.975Z,3192
2019-05-02T08:07:38.995Z,3128
2019-05-02T08:08:36.240Z,3224
2019-05-02T08:09:29.887Z,3576
2019-05-02T08:10:31.206Z,3948
2019-05-02T08:11:32.160Z,3776
2019-05-02T08:12:29.946Z,3688
2019-05-02T08:14:37.131Z,3716
2019-05-02T08:15:31.900Z,3600
2019-05-02T08:16:34.843Z,3696
2019-05-02T08:17:30.069Z,3688
2019-05-02T08:18:35.129Z,3964
2019-05-02T08:19:45.714Z,3768
2019-05-02T08:20:29.847Z,3812
2019-05-02T08:21:44.774Z,3880
2019-05-02T08:22:30.128Z,3852
2019-05-02T08:23:33.477Z,4004
2019-05-02T08:24:32.956Z,4048
2019-05-02T08:25:30.196Z,3872
2019-05-02T08:26:30.656Z,4056
2019-05-02T08:28:46.937Z,3852
2019-05-02T08:29:35.735Z,3864
2019-05-02T08:30:30.291Z,3812
2019-05-02T08:31:32.679Z,3736
2019-05-02T08:32:30.322Z,3760
2019-05-02T08:33:38.962Z,4036
2019-05-02T08:34:30.475Z,4204
2019-05-02T08:35:47.696Z,4240
2019-05-02T08:36:30.404Z,4544
2019-05-02T08:38:30.438Z,4396
2019-05-02T08:39:38.332Z,4248
2019-05-02T08:40:30.484Z,4284
2019-05-02T08:41:30.496Z,4520
2019-05-02T08:42:37.654Z,4648
2019-05-02T08:43:30.540Z,4680
2019-05-02T08:44:30.558Z,4660
2019-05-02T08:45:32.913Z,4396
2019-05-02T08:46:30.597Z,4608
2019-05-02T08:47:34.947Z,4852
2019-05-02T08:48:30.647Z,4480
2019-05-02T08:49:30.811Z,4636
2019-05-02T08:50:37.082Z,4656
2019-05-02T08:52:48.055Z,4708
2019-05-02T08:53:45.399Z,4920
2019-05-02T08:54:37.718Z,5456
2019-05-02T08:56:30.788Z,5708
2019-05-02T08:57:38.445Z,5820
2019-05-02T08:58:30.849Z,5668
2019-05-02T08:59:31.811Z,5176
2019-05-02T09:00:47.093Z,5080
2019-05-02T09:03:02.451Z,4732
2019-05-02T09:03:35.124Z,4916
2019-05-02T09:05:30.971Z,5116
2019-05-02T09:06:31.327Z,4872
2019-05-02T09:07:36.954Z,4792
2019-05-02T09:08:31.029Z,5228
2019-05-02T09:09:45.710Z,4816
2019-05-02T09:10:31.075Z,5268
2019-05-02T09:11:31.091Z,5344
2019-05-02T09:13:37.860Z,5880
2019-05-02T09:14:32.159Z,5320
2019-05-02T09:15:31.730Z,5488
2019-05-02T09:16:37.587Z,5408
2019-05-02T09:18:54.133Z,5252
2019-05-02T09:19:39.268Z,5276
2019-05-02T09:20:31.883Z,5408
2019-05-02T09:21:39.241Z,5348
2019-05-02T09:22:32.760Z,5400
2019-05-02T09:23:41.813Z,6032
2019-05-02T09:24:32.532Z,6412
2019-05-02T09:25:47.793Z,5840
2019-05-02T09:26:45.137Z,5616
2019-05-02T09:27:31.860Z,5508
2019-05-02T09:28:47.311Z,5416
2019-05-02T09:29:32.688Z,5336
2019-05-02T09:30:35.074Z,5836
2019-05-02T09:32:37.003Z,5376
2019-05-02T09:33:32.166Z,5572
2019-05-02T09:34:34.381Z,6536
2019-05-02T09:35:32.809Z,6284
2019-05-02T09:36:32.255Z,6596
2019-05-02T09:37:32.086Z,6748
2019-05-02T09:38:32.839Z,6568
2019-05-02T09:39:41.231Z,6808
2019-05-02T09:40:31.937Z,6460
2019-05-02T09:41:46.790Z,6252
2019-05-02T09:42:32.465Z,6332
2019-05-02T09:43:40.040Z,6544
2019-05-02T09:44:33.206Z,6692
2019-05-02T09:45:43.992Z,6908
2019-05-02T09:46:32.434Z,7332
2019-05-02T09:48:05.015Z,7860
2019-05-02T09:48:34.369Z,8788
2019-05-02T09:49:32.389Z,8404
2019-05-02T09:50:42.102Z,7984
2019-05-02T09:51:50.248Z,7240
2019-05-02T09:52:44.086Z,7816
2019-05-02T09:53:34.811Z,7320
2019-05-02T09:54:32.273Z,7124
2019-05-02T09:55:34.108Z,7288
2019-05-02T09:56:47.859Z,6912
2019-05-02T09:57:32.113Z,6988
2019-05-02T09:58:34.455Z,7560
2019-05-02T09:59:43.054Z,7988
2019-05-02T10:00:41.658Z,7532
2019-05-02T10:01:34.071Z,6784
2019-05-02T10:02:32.566Z,6396
2019-05-02T10:03:34.229Z,6648
2019-05-02T10:04:32.605Z,6396
2019-05-02T10:05:32.338Z,6780
2019-05-02T10:06:36.330Z,6980
2019-05-02T10:07:32.469Z,7304
2019-05-02T10:08:38.178Z,6616
2019-05-02T10:09:34.867Z,7064
2019-05-02T10:10:37.024Z,6928
2019-05-02T10:11:34.728Z,6588
2019-05-02T10:12:34.473Z,6100
2019-05-02T10:13:34.269Z,5588
2019-05-02T10:14:32.999Z,5756
2019-05-02T10:16:36.586Z,5928
2019-05-02T10:17:37.420Z,6380
2019-05-02T10:18:37.875Z,6468
2019-05-02T10:19:35.160Z,6192
2019-05-02T10:21:34.275Z,5812
2019-05-02T10:22:46.200Z,5396
2019-05-02T10:23:34.615Z,5156
2019-05-02T10:24:34.582Z,5032
2019-05-02T10:25:48.802Z,5136
2019-05-02T10:26:35.335Z,5400
2019-05-02T10:27:38.402Z,5652
2019-05-02T10:28:55.788Z,5572
2019-05-02T10:29:37.778Z,5284
2019-05-02T10:30:37.881Z,4996
2019-05-02T10:31:42.087Z,4792
2019-05-02T10:32:34.889Z,5016
2019-05-02T10:33:42.013Z,5176
2019-05-02T10:34:33.068Z,5276
2019-05-02T10:35:45.829Z,5592
2019-05-02T10:36:34.875Z,5488
2019-05-02T10:37:43.015Z,5080
2019-05-02T10:38:34.918Z,5176
2019-05-02T10:39:42.273Z,4992
2019-05-02T10:40:34.579Z,5192
2019-05-02T10:41:45.564Z,5628
2019-05-02T10:42:34.877Z,5408
2019-05-02T10:43:35.308Z,5228
2019-05-02T10:44:47.646Z,5676
2019-05-02T10:45:34.502Z,5932
2019-05-02T10:46:41.586Z,5924
2019-05-02T10:47:36.345Z,6432
2019-05-02T10:48:38.044Z,7896
2019-05-02T10:49:47.749Z,7956
2019-05-02T10:50:35.252Z,8512
2019-05-02T10:51:34.432Z,8596
2019-05-02T10:52:39.117Z,8508
2019-05-02T10:53:34.650Z,7712
2019-05-02T10:54:42.143Z,8076
2019-05-02T10:56:34.868Z,8324
2019-05-02T10:58:42.529Z,7056
2019-05-02T10:59:35.242Z,6488
2019-05-02T11:00:52.097Z,7144
2019-05-02T11:01:48.003Z,6216
2019-05-02T11:02:35.181Z,6012
2019-05-02T11:03:37.880Z,5756
2019-05-02T11:04:52.426Z,5396
2019-05-02T11:05:33.796Z,5364
2019-05-02T11:06:37.063Z,5212
2019-05-02T11:07:35.182Z,5108
2019-05-02T11:08:36.597Z,4916
2019-05-02T11:09:34.347Z,4636
2019-05-02T11:10:48.187Z,4460
2019-05-02T11:11:48.213Z,4944
2019-05-02T11:12:52.598Z,5016
2019-05-02T11:13:34.657Z,4720
2019-05-02T11:15:34.998Z,4672
2019-05-02T11:17:02.990Z,4636
2019-05-02T11:17:36.413Z,4616
2019-05-02T11:18:49.598Z,4716
2019-05-02T11:19:34.265Z,4592
2019-05-02T11:20:34.284Z,4572
2019-05-02T11:21:56.190Z,5192
2019-05-02T11:22:34.564Z,5308
2019-05-02T11:23:35.309Z,4912
2019-05-02T11:25:48.494Z,4780
2019-05-02T11:26:34.909Z,4596
2019-05-02T11:28:34.816Z,4368
2019-05-02T11:29:48.586Z,4512
2019-05-02T11:30:34.447Z,4828
2019-05-02T11:31:48.635Z,4456
2019-05-02T11:32:35.141Z,4408
2019-05-02T11:33:34.959Z,4660
2019-05-02T11:34:35.156Z,5156
2019-05-02T11:35:50.773Z,6008
2019-05-02T11:36:35.342Z,6380
2019-05-02T11:37:35.287Z,6540
2019-05-02T11:39:28.505Z,7552
2019-05-02T11:40:08.697Z,7476
2019-05-02T11:41:06.348Z,7140
2019-05-02T11:42:06.370Z,6984
2019-05-02T11:43:54.192Z,5640
2019-05-02T11:45:06.441Z,4952
2019-05-02T11:46:54.604Z,5732
2019-05-02T11:47:54.373Z,6200
2019-05-02T11:49:04.879Z,6576
2019-05-02T11:49:59.256Z,5588
2019-05-02T11:50:52.358Z,5740
2019-05-02T11:52:02.142Z,5552
2019-05-02T11:52:52.357Z,5664
2019-05-02T11:53:52.599Z,6952
2019-05-02T11:54:56.932Z,6440
2019-05-02T11:55:53.159Z,6140
2019-05-02T11:56:58.435Z,6268
2019-05-02T11:59:14.686Z,7400
2019-05-02T12:00:57.210Z,8080
2019-05-02T12:02:09.291Z,8596
2019-05-02T12:03:02.165Z,8572
2019-05-02T12:04:12.868Z,8304
2019-05-02T12:04:59.230Z,8172
2019-05-02T12:05:52.477Z,8372
2019-05-02T12:07:04.783Z,7540
2019-05-02T12:07:52.703Z,7056
2019-05-02T12:08:57.539Z,7024
2019-05-02T12:10:06.540Z,7000
2019-05-02T12:10:54.363Z,7356
2019-05-02T12:12:00.219Z,7388
2019-05-02T12:14:01.531Z,6448
2019-05-02T12:14:52.834Z,6336
2019-05-02T12:16:52.794Z,6776
2019-05-02T12:17:54.083Z,6796
2019-05-02T12:18:53.710Z,7768
2019-05-02T12:20:07.173Z,7520
2019-05-02T12:20:54.517Z,7192
2019-05-02T12:21:52.935Z,8204
2019-05-02T12:22:52.831Z,9660
2019-05-02T12:23:54.880Z,9896
2019-05-02T12:24:54.311Z,9544
2019-05-02T12:25:54.498Z,7908
2019-05-02T12:26:55.287Z,7316
2019-05-02T12:27:52.823Z,7580
2019-05-02T12:28:54.792Z,7576
2019-05-02T12:30:05.799Z,7752
2019-05-02T12:30:54.376Z,8396
2019-05-02T12:31:59.721Z,8504
2019-05-02T12:32:53.154Z,8356
2019-05-02T12:33:54.039Z,7020
2019-05-02T12:34:55.006Z,6888
2019-05-02T12:36:07.355Z,7080
2019-05-02T12:36:54.746Z,7560
2019-05-02T12:37:58.478Z,7580
2019-05-02T12:38:55.125Z,7060
2019-05-02T12:40:54.479Z,7592
2019-05-02T12:41:56.399Z,7464
2019-05-02T12:43:07.665Z,7700
2019-05-02T12:43:54.878Z,7316
2019-05-02T12:46:54.223Z,7056
2019-05-02T12:48:07.774Z,6296
2019-05-02T12:48:54.464Z,5892
2019-05-02T12:49:54.411Z,6088
2019-05-02T12:51:07.832Z,6644
2019-05-02T12:52:07.862Z,5980
2019-05-02T12:52:55.701Z,5688
2019-05-02T12:53:55.347Z,5920
2019-05-02T12:54:55.049Z,5692
2019-05-02T12:55:55.175Z,5892
2019-05-02T12:56:55.287Z,5580
2019-05-02T12:57:54.790Z,5764
2019-05-02T12:58:55.268Z,6952
2019-05-02T13:00:55.533Z,7556
2019-05-02T13:02:08.075Z,7924
2019-05-02T13:02:54.927Z,7672
2019-05-02T13:03:54.229Z,6832
2019-05-02T13:04:55.151Z,6612
2019-05-02T13:05:54.563Z,6512
2019-05-02T13:07:08.179Z,6728
2019-05-02T13:08:00.203Z,6684
2019-05-02T13:08:55.019Z,7024
2019-05-02T13:09:55.244Z,7508
2019-05-02T13:11:06.605Z,7264
2019-05-02T13:11:54.763Z,7784
2019-05-02T13:12:55.542Z,7140
2019-05-02T13:13:55.833Z,6680
2019-05-02T13:14:55.368Z,6372
2019-05-02T13:16:08.509Z,6420
2019-05-02T13:17:08.358Z,6180
2019-05-02T13:18:57.140Z,5640
2019-05-02T13:20:08.562Z,6040
2019-05-02T13:20:55.268Z,5572
2019-05-02T13:22:12.468Z,5136
2019-05-02T13:22:55.118Z,5232
2019-05-02T13:23:54.179Z,5936
2019-05-02T13:25:02.188Z,7236
2019-05-02T13:27:06.399Z,9040
2019-05-02T13:28:12.261Z,9632
2019-05-02T13:28:54.163Z,9632
2019-05-02T13:30:54.152Z,8296
2019-05-02T13:31:54.813Z,7548
2019-05-02T13:33:02.469Z,6976
2019-05-02T13:33:54.800Z,7084
2019-05-02T13:35:54.382Z,6848
2019-05-02T13:36:54.439Z,6244
2019-05-02T13:37:54.303Z,5976
2019-05-02T13:39:08.877Z,6308
2019-05-02T13:39:55.491Z,6432
2019-05-02T13:41:11.842Z,5640
2019-05-02T13:42:08.966Z,5072
2019-05-02T13:42:54.763Z,4900
2019-05-02T13:43:54.954Z,5148
2019-05-02T13:44:55.156Z,5036
2019-05-02T13:45:55.082Z,4412
2019-05-02T13:46:56.005Z,4732
2019-05-02T13:47:56.651Z,5032
2019-05-02T13:49:09.087Z,4836
2019-05-02T13:50:06.453Z,5576
2019-05-02T13:50:56.571Z,6224
2019-05-02T13:51:56.824Z,6164
2019-05-02T13:53:18.281Z,6728
2019-05-02T13:53:54.635Z,6224
2019-05-02T13:55:09.235Z,6372
2019-05-02T13:55:54.816Z,6940
2019-05-02T13:56:55.432Z,7192
2019-05-02T13:58:56.610Z,8448
2019-05-02T13:59:55.089Z,7944
2019-05-02T14:01:09.352Z,7692
2019-05-02T14:01:56.787Z,7500
2019-05-02T14:02:56.726Z,8252
2019-05-02T14:04:03.492Z,8432
2019-05-02T14:04:56.555Z,8304
2019-05-02T14:05:58.743Z,8228
2019-05-02T14:06:55.385Z,7816
2019-05-02T14:08:01.770Z,8284
2019-05-02T14:08:55.793Z,7700
2019-05-02T14:10:06.739Z,8096
2019-05-02T14:11:09.583Z,7632
2019-05-02T14:11:55.127Z,8048
2019-05-02T14:12:55.304Z,7608
2019-05-02T14:14:56.758Z,7560
2019-05-02T14:15:55.213Z,6852
2019-05-02T14:16:55.493Z,6976
2019-05-02T14:17:57.246Z,6880
2019-05-02T14:18:55.473Z,6916
2019-05-02T14:20:11.473Z,6100
2019-05-02T14:20:54.932Z,6448
2019-05-02T14:21:56.666Z,6600
2019-05-02T14:22:57.361Z,6512
2019-05-02T14:23:56.701Z,5844
2019-05-02T14:24:56.752Z,5296
2019-05-02T14:25:56.923Z,5176
2019-05-02T14:27:18.344Z,4472
2019-05-02T14:28:02.882Z,4176
2019-05-02T14:29:57.284Z,4556
2019-05-02T14:30:57.215Z,5272
2019-05-02T14:31:56.801Z,4916
2019-05-02T14:32:57.151Z,4704
2019-05-02T14:33:57.167Z,4436
2019-05-02T14:34:57.257Z,3988
2019-05-02T14:36:11.660Z,3796
2019-05-02T14:37:02.085Z,3608
2019-05-02T14:37:55.587Z,3724
2019-05-02T14:38:57.307Z,3844
2019-05-02T14:40:11.643Z,3808
2019-05-02T14:41:12.400Z,4108
2019-05-02T14:42:13.451Z,4144
2019-05-02T14:43:03.270Z,4448
2019-05-02T14:44:12.726Z,4392
2019-05-02T14:45:35.781Z,3784